sensor_id;sensor_type;location;lat;lon;timestamp;temperature;humidity
20337;DHT22;10326;53.660;10.200;2023-02-22T00:00:25;11.80;88.80
20337;DHT22;10326;53.660;10.200;2023-02-22T00:03:10;11.80;88.90
20337;DHT22;10326;53.660;10.200;2023-02-22T00:05:40;11.80;88.90
20337;DHT22;10326;53.660;10.200;2023-02-22T00:08:10;11.80;88.90
20337;DHT22;10326;53.660;10.200;2023-02-22T00:10:38;11.80;89.00
20337;DHT22;10326;53.660;10.200;2023-02-22T00:13:08;11.80;89.00
20337;DHT22;10326;53.660;10.200;2023-02-22T00:15:36;11.80;88.90
20337;DHT22;10326;53.660;10.200;2023-02-22T00:18:07;11.80;89.00
20337;DHT22;10326;53.660;10.200;2023-02-22T00:20:36;11.80;89.00
20337;DHT22;10326;53.660;10.200;2023-02-22T00:23:04;11.80;89.00
20337;DHT22;10326;53.660;10.200;2023-02-22T00:25:33;11.80;89.00
20337;DHT22;10326;53.660;10.200;2023-02-22T00:28:02;11.80;89.00
20337;DHT22;10326;53.660;10.200;2023-02-22T00:30:31;11.80;89.00
20337;DHT22;10326;53.660;10.200;2023-02-22T00:32:59;11.80;89.10
20337;DHT22;10326;53.660;10.200;2023-02-22T00:35:28;11.80;89.10
20337;DHT22;10326;53.660;10.200;2023-02-22T00:37:58;11.80;89.10
20337;DHT22;10326;53.660;10.200;2023-02-22T00:40:28;11.80;89.10
20337;DHT22;10326;53.660;10.200;2023-02-22T00:42:56;11.80;89.10
20337;DHT22;10326;53.660;10.200;2023-02-22T00:45:27;11.80;89.10
20337;DHT22;10326;53.660;10.200;2023-02-22T00:47:56;11.80;89.60
20337;DHT22;10326;53.660;10.200;2023-02-22T00:50:25;11.80;89.10
20337;DHT22;10326;53.660;10.200;2023-02-22T00:52:54;11.80;89.10
20337;DHT22;10326;53.660;10.200;2023-02-22T00:55:24;11.70;89.00
20337;DHT22;10326;53.660;10.200;2023-02-22T00:57:52;11.70;88.90
20337;DHT22;10326;53.660;10.200;2023-02-22T01:00:23;11.70;88.90
20337;DHT22;10326;53.660;10.200;2023-02-22T01:02:53;11.70;89.00
20337;DHT22;10326;53.660;10.200;2023-02-22T01:05:23;11.70;89.00
20337;DHT22;10326;53.660;10.200;2023-02-22T01:07:53;11.70;89.10
20337;DHT22;10326;53.660;10.200;2023-02-22T01:10:23;11.70;89.10
20337;DHT22;10326;53.660;10.200;2023-02-22T01:12:52;11.70;89.10
20337;DHT22;10326;53.660;10.200;2023-02-22T01:15:22;11.70;89.10
20337;DHT22;10326;53.660;10.200;2023-02-22T01:17:53;11.70;89.10
20337;DHT22;10326;53.660;10.200;2023-02-22T01:20:21;11.70;89.20
20337;DHT22;10326;53.660;10.200;2023-02-22T01:22:52;11.70;89.20
20337;DHT22;10326;53.660;10.200;2023-02-22T01:25:23;11.70;89.10
20337;DHT22;10326;53.660;10.200;2023-02-22T01:27:52;11.70;89.20
20337;DHT22;10326;53.660;10.200;2023-02-22T01:30:24;11.70;89.20
20337;DHT22;10326;53.660;10.200;2023-02-22T01:32:54;11.70;89.20
20337;DHT22;10326;53.660;10.200;2023-02-22T01:35:26;11.70;89.20
20337;DHT22;10326;53.660;10.200;2023-02-22T01:37:55;11.70;89.20
20337;DHT22;10326;53.660;10.200;2023-02-22T01:40:25;11.70;89.20
20337;DHT22;10326;53.660;10.200;2023-02-22T01:42:58;11.70;89.30
20337;DHT22;10326;53.660;10.200;2023-02-22T01:45:53;11.70;89.30
20337;DHT22;10326;53.660;10.200;2023-02-22T01:48:29;11.70;89.30
20337;DHT22;10326;53.660;10.200;2023-02-22T01:51:01;11.70;89.20
20337;DHT22;10326;53.660;10.200;2023-02-22T01:53:41;11.70;89.20
20337;DHT22;10326;53.660;10.200;2023-02-22T01:56:13;11.70;89.20
20337;DHT22;10326;53.660;10.200;2023-02-22T01:58:44;11.70;89.20
20337;DHT22;10326;53.660;10.200;2023-02-22T02:01:13;11.70;89.20
20337;DHT22;10326;53.660;10.200;2023-02-22T02:03:43;11.70;89.30
20337;DHT22;10326;53.660;10.200;2023-02-22T02:06:15;11.70;89.20
20337;DHT22;10326;53.660;10.200;2023-02-22T02:08:51;11.70;89.20
20337;DHT22;10326;53.660;10.200;2023-02-22T02:11:23;11.70;89.20
20337;DHT22;10326;53.660;10.200;2023-02-22T02:13:52;11.70;89.10
20337;DHT22;10326;53.660;10.200;2023-02-22T02:16:21;11.70;89.20
20337;DHT22;10326;53.660;10.200;2023-02-22T02:18:50;11.70;89.20
20337;DHT22;10326;53.660;10.200;2023-02-22T02:21:40;11.70;89.30
20337;DHT22;10326;53.660;10.200;2023-02-22T02:27:55;11.70;89.30
20337;DHT22;10326;53.660;10.200;2023-02-22T02:30:46;11.70;89.30
20337;DHT22;10326;53.660;10.200;2023-02-22T02:33:28;11.70;89.30
20337;DHT22;10326;53.660;10.200;2023-02-22T02:36:03;11.70;89.30
20337;DHT22;10326;53.660;10.200;2023-02-22T02:38:40;11.70;89.30
20337;DHT22;10326;53.660;10.200;2023-02-22T02:41:15;11.70;89.30
20337;DHT22;10326;53.660;10.200;2023-02-22T02:43:52;11.70;89.30
20337;DHT22;10326;53.660;10.200;2023-02-22T02:46:25;11.70;89.20
20337;DHT22;10326;53.660;10.200;2023-02-22T02:49:00;11.70;89.20
20337;DHT22;10326;53.660;10.200;2023-02-22T02:51:33;11.70;89.30
20337;DHT22;10326;53.660;10.200;2023-02-22T02:54:04;11.70;89.30
20337;DHT22;10326;53.660;10.200;2023-02-22T02:56:33;11.70;89.30
20337;DHT22;10326;53.660;10.200;2023-02-22T02:59:00;11.70;89.30
20337;DHT22;10326;53.660;10.200;2023-02-22T03:01:43;11.70;89.30
20337;DHT22;10326;53.660;10.200;2023-02-22T03:04:29;11.70;89.40
20337;DHT22;10326;53.660;10.200;2023-02-22T03:07:27;11.70;89.40
20337;DHT22;10326;53.660;10.200;2023-02-22T03:10:10;11.70;89.40
20337;DHT22;10326;53.660;10.200;2023-02-22T03:12:47;11.70;89.30
20337;DHT22;10326;53.660;10.200;2023-02-22T03:15:31;11.70;89.30
20337;DHT22;10326;53.660;10.200;2023-02-22T03:18:07;11.70;89.20
20337;DHT22;10326;53.660;10.200;2023-02-22T03:20:42;11.70;89.30
20337;DHT22;10326;53.660;10.200;2023-02-22T03:23:15;11.70;89.30
20337;DHT22;10326;53.660;10.200;2023-02-22T03:25:52;11.70;89.20
20337;DHT22;10326;53.660;10.200;2023-02-22T03:28:24;11.70;89.20
20337;DHT22;10326;53.660;10.200;2023-02-22T03:30:54;11.70;89.30
20337;DHT22;10326;53.660;10.200;2023-02-22T03:33:29;11.70;89.30
20337;DHT22;10326;53.660;10.200;2023-02-22T03:36:08;11.70;89.30
20337;DHT22;10326;53.660;10.200;2023-02-22T03:38:40;11.70;89.30
20337;DHT22;10326;53.660;10.200;2023-02-22T03:41:12;11.70;89.30
20337;DHT22;10326;53.660;10.200;2023-02-22T03:43:46;11.70;89.30
20337;DHT22;10326;53.660;10.200;2023-02-22T03:46:16;11.70;89.30
20337;DHT22;10326;53.660;10.200;2023-02-22T03:48:50;11.70;89.90
20337;DHT22;10326;53.660;10.200;2023-02-22T03:51:22;11.70;89.40
20337;DHT22;10326;53.660;10.200;2023-02-22T03:53:55;11.70;89.30
20337;DHT22;10326;53.660;10.200;2023-02-22T03:56:30;11.70;89.40
20337;DHT22;10326;53.660;10.200;2023-02-22T03:59:01;11.70;89.40
20337;DHT22;10326;53.660;10.200;2023-02-22T04:01:29;11.70;89.40
20337;DHT22;10326;53.660;10.200;2023-02-22T04:03:57;11.70;89.50
20337;DHT22;10326;53.660;10.200;2023-02-22T04:06:26;11.70;89.50
20337;DHT22;10326;53.660;10.200;2023-02-22T04:08:55;11.70;89.50
20337;DHT22;10326;53.660;10.200;2023-02-22T04:11:22;11.70;89.40
20337;DHT22;10326;53.660;10.200;2023-02-22T04:13:50;11.70;89.40
20337;DHT22;10326;53.660;10.200;2023-02-22T04:16:20;11.70;89.40
20337;DHT22;10326;53.660;10.200;2023-02-22T04:18:48;11.70;89.40
20337;DHT22;10326;53.660;10.200;2023-02-22T04:21:17;11.70;89.40
20337;DHT22;10326;53.660;10.200;2023-02-22T04:23:49;11.70;89.40
20337;DHT22;10326;53.660;10.200;2023-02-22T04:26:17;11.70;89.40
20337;DHT22;10326;53.660;10.200;2023-02-22T04:28:50;11.70;89.40
20337;DHT22;10326;53.660;10.200;2023-02-22T04:31:21;11.70;89.40
20337;DHT22;10326;53.660;10.200;2023-02-22T04:33:49;11.70;89.50
20337;DHT22;10326;53.660;10.200;2023-02-22T04:36:21;11.70;89.50
20337;DHT22;10326;53.660;10.200;2023-02-22T04:38:50;11.70;89.50
20337;DHT22;10326;53.660;10.200;2023-02-22T04:41:18;11.60;89.40
20337;DHT22;10326;53.660;10.200;2023-02-22T04:43:45;11.70;89.50
20337;DHT22;10326;53.660;10.200;2023-02-22T04:46:19;11.70;89.50
20337;DHT22;10326;53.660;10.200;2023-02-22T04:48:46;11.70;89.50
20337;DHT22;10326;53.660;10.200;2023-02-22T04:51:16;11.70;89.60
20337;DHT22;10326;53.660;10.200;2023-02-22T04:54:01;11.70;89.60
20337;DHT22;10326;53.660;10.200;2023-02-22T04:56:30;11.60;89.50
20337;DHT22;10326;53.660;10.200;2023-02-22T04:58:58;11.60;89.50
20337;DHT22;10326;53.660;10.200;2023-02-22T05:01:30;11.60;89.50
20337;DHT22;10326;53.660;10.200;2023-02-22T05:03:58;11.60;89.50
20337;DHT22;10326;53.660;10.200;2023-02-22T05:06:25;11.60;89.40
20337;DHT22;10326;53.660;10.200;2023-02-22T05:08:52;11.60;89.40
20337;DHT22;10326;53.660;10.200;2023-02-22T05:11:21;11.60;89.50
20337;DHT22;10326;53.660;10.200;2023-02-22T05:13:48;11.60;89.50
20337;DHT22;10326;53.660;10.200;2023-02-22T05:16:16;11.60;89.50
20337;DHT22;10326;53.660;10.200;2023-02-22T05:18:44;11.60;89.60
20337;DHT22;10326;53.660;10.200;2023-02-22T05:21:11;11.60;89.70
20337;DHT22;10326;53.660;10.200;2023-02-22T05:23:39;11.60;89.70
20337;DHT22;10326;53.660;10.200;2023-02-22T05:26:06;11.60;89.60
20337;DHT22;10326;53.660;10.200;2023-02-22T05:28:35;11.60;89.70
20337;DHT22;10326;53.660;10.200;2023-02-22T05:31:02;11.60;89.70
20337;DHT22;10326;53.660;10.200;2023-02-22T05:33:29;11.60;89.70
20337;DHT22;10326;53.660;10.200;2023-02-22T05:35:56;11.60;89.70
20337;DHT22;10326;53.660;10.200;2023-02-22T05:38:24;11.60;89.80
20337;DHT22;10326;53.660;10.200;2023-02-22T05:40:51;11.60;89.80
20337;DHT22;10326;53.660;10.200;2023-02-22T05:43:18;11.60;89.80
20337;DHT22;10326;53.660;10.200;2023-02-22T05:45:47;11.60;89.80
20337;DHT22;10326;53.660;10.200;2023-02-22T05:48:14;11.60;89.90
20337;DHT22;10326;53.660;10.200;2023-02-22T05:50:42;11.60;89.90
20337;DHT22;10326;53.660;10.200;2023-02-22T05:53:09;11.60;89.90
20337;DHT22;10326;53.660;10.200;2023-02-22T05:55:36;11.60;89.90
20337;DHT22;10326;53.660;10.200;2023-02-22T05:58:05;11.60;89.80
20337;DHT22;10326;53.660;10.200;2023-02-22T06:00:32;11.60;89.90
20337;DHT22;10326;53.660;10.200;2023-02-22T06:03:03;11.60;89.80
20337;DHT22;10326;53.660;10.200;2023-02-22T06:05:31;11.60;90.00
20337;DHT22;10326;53.660;10.200;2023-02-22T06:07:59;11.60;90.00
20337;DHT22;10326;53.660;10.200;2023-02-22T06:10:28;11.50;90.20
20337;DHT22;10326;53.660;10.200;2023-02-22T06:12:56;11.50;90.00
20337;DHT22;10326;53.660;10.200;2023-02-22T06:15:25;11.50;90.00
20337;DHT22;10326;53.660;10.200;2023-02-22T06:17:53;11.50;90.00
20337;DHT22;10326;53.660;10.200;2023-02-22T06:20:25;11.60;90.00
20337;DHT22;10326;53.660;10.200;2023-02-22T06:22:55;11.50;90.00
20337;DHT22;10326;53.660;10.200;2023-02-22T06:25:25;11.50;90.00
20337;DHT22;10326;53.660;10.200;2023-02-22T06:27:55;11.50;90.00
20337;DHT22;10326;53.660;10.200;2023-02-22T06:30:25;11.50;90.00
20337;DHT22;10326;53.660;10.200;2023-02-22T06:32:52;11.50;90.00
20337;DHT22;10326;53.660;10.200;2023-02-22T06:35:20;11.50;90.00
20337;DHT22;10326;53.660;10.200;2023-02-22T06:37:50;11.50;90.10
20337;DHT22;10326;53.660;10.200;2023-02-22T06:40:17;11.50;90.10
20337;DHT22;10326;53.660;10.200;2023-02-22T06:42:47;11.50;90.10
20337;DHT22;10326;53.660;10.200;2023-02-22T06:45:16;11.50;90.10
20337;DHT22;10326;53.660;10.200;2023-02-22T06:47:44;11.50;90.10
20337;DHT22;10326;53.660;10.200;2023-02-22T06:50:19;11.50;90.10
20337;DHT22;10326;53.660;10.200;2023-02-22T06:52:49;11.50;90.20
20337;DHT22;10326;53.660;10.200;2023-02-22T06:55:19;11.50;90.10
20337;DHT22;10326;53.660;10.200;2023-02-22T06:57:46;11.50;90.10
20337;DHT22;10326;53.660;10.200;2023-02-22T07:00:15;11.50;90.10
20337;DHT22;10326;53.660;10.200;2023-02-22T07:02:43;11.50;90.20
20337;DHT22;10326;53.660;10.200;2023-02-22T07:05:11;11.50;90.20
20337;DHT22;10326;53.660;10.200;2023-02-22T07:07:39;11.60;90.40
20337;DHT22;10326;53.660;10.200;2023-02-22T07:10:16;11.60;90.30
20337;DHT22;10326;53.660;10.200;2023-02-22T07:12:44;11.60;90.30
20337;DHT22;10326;53.660;10.200;2023-02-22T07:15:13;11.60;90.20
20337;DHT22;10326;53.660;10.200;2023-02-22T07:17:42;11.60;90.20
20337;DHT22;10326;53.660;10.200;2023-02-22T07:20:10;11.60;90.30
20337;DHT22;10326;53.660;10.200;2023-02-22T07:22:37;11.60;90.30
20337;DHT22;10326;53.660;10.200;2023-02-22T07:25:06;11.60;90.30
20337;DHT22;10326;53.660;10.200;2023-02-22T07:27:36;11.60;90.30
20337;DHT22;10326;53.660;10.200;2023-02-22T07:30:04;11.60;90.20
20337;DHT22;10326;53.660;10.200;2023-02-22T07:32:33;11.60;90.20
20337;DHT22;10326;53.660;10.200;2023-02-22T07:35:00;11.60;90.30
20337;DHT22;10326;53.660;10.200;2023-02-22T07:37:27;11.60;90.30
20337;DHT22;10326;53.660;10.200;2023-02-22T07:39:55;11.60;90.30
20337;DHT22;10326;53.660;10.200;2023-02-22T07:42:23;11.70;90.30
20337;DHT22;10326;53.660;10.200;2023-02-22T07:44:50;11.70;90.30
20337;DHT22;10326;53.660;10.200;2023-02-22T07:47:18;11.70;90.30
20337;DHT22;10326;53.660;10.200;2023-02-22T07:49:45;11.70;90.30
20337;DHT22;10326;53.660;10.200;2023-02-22T07:52:12;11.70;90.30
20337;DHT22;10326;53.660;10.200;2023-02-22T07:54:39;11.70;90.30
20337;DHT22;10326;53.660;10.200;2023-02-22T07:57:06;11.70;90.30
20337;DHT22;10326;53.660;10.200;2023-02-22T07:59:35;11.70;90.30
20337;DHT22;10326;53.660;10.200;2023-02-22T08:02:02;11.70;90.40
20337;DHT22;10326;53.660;10.200;2023-02-22T08:04:29;11.70;90.40
20337;DHT22;10326;53.660;10.200;2023-02-22T08:06:56;11.70;90.40
20337;DHT22;10326;53.660;10.200;2023-02-22T08:09:23;11.70;90.50
20337;DHT22;10326;53.660;10.200;2023-02-22T08:11:50;11.70;90.50
20337;DHT22;10326;53.660;10.200;2023-02-22T08:14:18;11.70;90.50
20337;DHT22;10326;53.660;10.200;2023-02-22T08:16:46;11.70;90.50
20337;DHT22;10326;53.660;10.200;2023-02-22T08:19:14;11.70;90.50
20337;DHT22;10326;53.660;10.200;2023-02-22T08:21:41;11.70;90.50
20337;DHT22;10326;53.660;10.200;2023-02-22T08:24:10;11.80;90.60
20337;DHT22;10326;53.660;10.200;2023-02-22T08:26:43;11.80;90.60
20337;DHT22;10326;53.660;10.200;2023-02-22T08:29:10;11.80;90.70
20337;DHT22;10326;53.660;10.200;2023-02-22T08:31:39;11.80;90.60
20337;DHT22;10326;53.660;10.200;2023-02-22T08:34:07;11.80;90.60
20337;DHT22;10326;53.660;10.200;2023-02-22T08:36:34;11.90;90.60
20337;DHT22;10326;53.660;10.200;2023-02-22T08:39:02;11.90;90.60
20337;DHT22;10326;53.660;10.200;2023-02-22T08:41:29;11.90;90.70
20337;DHT22;10326;53.660;10.200;2023-02-22T08:43:56;11.90;90.70
20337;DHT22;10326;53.660;10.200;2023-02-22T08:46:25;11.90;90.70
20337;DHT22;10326;53.660;10.200;2023-02-22T08:48:52;11.90;90.70
20337;DHT22;10326;53.660;10.200;2023-02-22T08:51:21;11.90;90.70
20337;DHT22;10326;53.660;10.200;2023-02-22T08:53:48;12.00;90.70
20337;DHT22;10326;53.660;10.200;2023-02-22T08:56:16;12.00;90.70
20337;DHT22;10326;53.660;10.200;2023-02-22T08:58:43;12.00;90.70
20337;DHT22;10326;53.660;10.200;2023-02-22T09:01:10;12.00;90.70
20337;DHT22;10326;53.660;10.200;2023-02-22T09:03:38;12.00;90.70
20337;DHT22;10326;53.660;10.200;2023-02-22T09:06:06;12.00;90.70
20337;DHT22;10326;53.660;10.200;2023-02-22T09:08:34;12.00;90.70
20337;DHT22;10326;53.660;10.200;2023-02-22T09:11:02;12.10;90.80
20337;DHT22;10326;53.660;10.200;2023-02-22T09:13:29;12.10;90.80
20337;DHT22;10326;53.660;10.200;2023-02-22T09:15:56;12.10;90.80
20337;DHT22;10326;53.660;10.200;2023-02-22T09:18:26;12.10;90.80
20337;DHT22;10326;53.660;10.200;2023-02-22T09:20:54;12.10;90.80
20337;DHT22;10326;53.660;10.200;2023-02-22T09:23:21;12.10;90.80
20337;DHT22;10326;53.660;10.200;2023-02-22T09:25:50;12.10;90.90
20337;DHT22;10326;53.660;10.200;2023-02-22T09:28:17;12.20;90.90
20337;DHT22;10326;53.660;10.200;2023-02-22T09:30:44;12.20;90.80
20337;DHT22;10326;53.660;10.200;2023-02-22T09:33:13;12.20;90.90
20337;DHT22;10326;53.660;10.200;2023-02-22T09:35:42;12.20;90.80
20337;DHT22;10326;53.660;10.200;2023-02-22T09:38:12;12.20;90.90
20337;DHT22;10326;53.660;10.200;2023-02-22T09:40:44;12.30;91.00
20337;DHT22;10326;53.660;10.200;2023-02-22T09:43:23;12.30;91.00
20337;DHT22;10326;53.660;10.200;2023-02-22T09:46:12;12.30;91.00
20337;DHT22;10326;53.660;10.200;2023-02-22T09:48:53;12.40;91.10
20337;DHT22;10326;53.660;10.200;2023-02-22T09:51:26;12.40;91.10
20337;DHT22;10326;53.660;10.200;2023-02-22T09:53:58;12.40;91.00
20337;DHT22;10326;53.660;10.200;2023-02-22T09:56:27;12.40;91.00
20337;DHT22;10326;53.660;10.200;2023-02-22T09:59:00;12.50;91.30
20337;DHT22;10326;53.660;10.200;2023-02-22T10:01:31;12.50;90.90
20337;DHT22;10326;53.660;10.200;2023-02-22T10:04:05;12.50;90.90
20337;DHT22;10326;53.660;10.200;2023-02-22T10:06:38;12.60;90.90
20337;DHT22;10326;53.660;10.200;2023-02-22T10:09:09;12.50;90.80
20337;DHT22;10326;53.660;10.200;2023-02-22T10:11:48;12.60;91.10
20337;DHT22;10326;53.660;10.200;2023-02-22T10:14:57;12.60;90.90
20337;DHT22;10326;53.660;10.200;2023-02-22T10:17:38;12.60;91.00
20337;DHT22;10326;53.660;10.200;2023-02-22T10:20:20;12.60;90.90
20337;DHT22;10326;53.660;10.200;2023-02-22T10:23:03;12.60;90.90
20337;DHT22;10326;53.660;10.200;2023-02-22T10:25:38;12.60;90.90
20337;DHT22;10326;53.660;10.200;2023-02-22T10:28:11;12.70;90.90
20337;DHT22;10326;53.660;10.200;2023-02-22T10:30:46;12.70;90.90
20337;DHT22;10326;53.660;10.200;2023-02-22T10:33:21;12.70;90.90
20337;DHT22;10326;53.660;10.200;2023-02-22T10:35:52;12.70;91.10
20337;DHT22;10326;53.660;10.200;2023-02-22T10:38:21;12.80;91.10
20337;DHT22;10326;53.660;10.200;2023-02-22T10:40:54;12.80;90.80
20337;DHT22;10326;53.660;10.200;2023-02-22T10:43:24;12.80;90.90
20337;DHT22;10326;53.660;10.200;2023-02-22T10:45:55;12.80;91.10
20337;DHT22;10326;53.660;10.200;2023-02-22T10:48:27;12.80;90.80
20337;DHT22;10326;53.660;10.200;2023-02-22T10:50:59;12.90;90.80
20337;DHT22;10326;53.660;10.200;2023-02-22T10:53:28;12.90;90.80
20337;DHT22;10326;53.660;10.200;2023-02-22T10:56:15;12.90;90.80
20337;DHT22;10326;53.660;10.200;2023-02-22T10:58:48;12.90;90.80
20337;DHT22;10326;53.660;10.200;2023-02-22T11:01:32;12.90;90.70
20337;DHT22;10326;53.660;10.200;2023-02-22T11:04:09;12.90;90.60
20337;DHT22;10326;53.660;10.200;2023-02-22T11:06:39;12.90;90.60
20337;DHT22;10326;53.660;10.200;2023-02-22T11:09:12;12.90;90.60
20337;DHT22;10326;53.660;10.200;2023-02-22T11:11:43;12.90;90.60
20337;DHT22;10326;53.660;10.200;2023-02-22T11:14:12;12.90;90.80
20337;DHT22;10326;53.660;10.200;2023-02-22T11:16:47;12.90;90.60
20337;DHT22;10326;53.660;10.200;2023-02-22T11:19:19;12.90;90.70
20337;DHT22;10326;53.660;10.200;2023-02-22T11:21:51;12.90;90.70
20337;DHT22;10326;53.660;10.200;2023-02-22T11:24:21;12.90;90.80
20337;DHT22;10326;53.660;10.200;2023-02-22T11:26:55;13.00;90.80
20337;DHT22;10326;53.660;10.200;2023-02-22T11:29:26;13.00;90.70
20337;DHT22;10326;53.660;10.200;2023-02-22T11:32:00;13.00;90.70
20337;DHT22;10326;53.660;10.200;2023-02-22T11:34:32;13.10;90.80
20337;DHT22;10326;53.660;10.200;2023-02-22T11:37:26;13.00;90.70
20337;DHT22;10326;53.660;10.200;2023-02-22T11:40:13;13.10;90.60
20337;DHT22;10326;53.660;10.200;2023-02-22T11:42:44;13.10;90.50
20337;DHT22;10326;53.660;10.200;2023-02-22T11:45:14;13.20;90.60
20337;DHT22;10326;53.660;10.200;2023-02-22T11:47:55;13.10;90.50
20337;DHT22;10326;53.660;10.200;2023-02-22T11:50:29;13.10;90.50
20337;DHT22;10326;53.660;10.200;2023-02-22T11:53:19;13.20;90.50
20337;DHT22;10326;53.660;10.200;2023-02-22T11:56:06;13.20;90.50
20337;DHT22;10326;53.660;10.200;2023-02-22T11:58:43;13.20;90.70
20337;DHT22;10326;53.660;10.200;2023-02-22T12:01:22;13.20;90.50
20337;DHT22;10326;53.660;10.200;2023-02-22T12:04:25;13.20;90.50
20337;DHT22;10326;53.660;10.200;2023-02-22T12:07:16;13.30;90.60
20337;DHT22;10326;53.660;10.200;2023-02-22T12:09:53;13.30;90.60
20337;DHT22;10326;53.660;10.200;2023-02-22T12:12:29;13.40;90.70
20337;DHT22;10326;53.660;10.200;2023-02-22T12:15:02;13.40;90.70
20337;DHT22;10326;53.660;10.200;2023-02-22T12:17:41;13.40;90.80
20337;DHT22;10326;53.660;10.200;2023-02-22T12:20:17;13.50;90.70
20337;DHT22;10326;53.660;10.200;2023-02-22T12:23:12;13.60;90.60
20337;DHT22;10326;53.660;10.200;2023-02-22T12:25:52;13.60;90.60
20337;DHT22;10326;53.660;10.200;2023-02-22T12:28:29;13.70;90.50
20337;DHT22;10326;53.660;10.200;2023-02-22T12:31:07;13.70;90.50
20337;DHT22;10326;53.660;10.200;2023-02-22T12:33:51;13.70;90.50
20337;DHT22;10326;53.660;10.200;2023-02-22T12:36:32;13.70;90.50
20337;DHT22;10326;53.660;10.200;2023-02-22T12:39:03;13.80;90.50
20337;DHT22;10326;53.660;10.200;2023-02-22T12:41:41;13.80;90.40
20337;DHT22;10326;53.660;10.200;2023-02-22T12:44:15;13.90;90.50
20337;DHT22;10326;53.660;10.200;2023-02-22T12:46:47;13.90;90.40
20337;DHT22;10326;53.660;10.200;2023-02-22T12:49:25;13.90;90.40
20337;DHT22;10326;53.660;10.200;2023-02-22T12:52:02;13.90;90.30
20337;DHT22;10326;53.660;10.200;2023-02-22T12:54:40;14.00;90.40
20337;DHT22;10326;53.660;10.200;2023-02-22T12:57:18;14.00;90.40
20337;DHT22;10326;53.660;10.200;2023-02-22T12:59:56;14.10;90.30
20337;DHT22;10326;53.660;10.200;2023-02-22T13:02:29;14.10;90.10
20337;DHT22;10326;53.660;10.200;2023-02-22T13:04:59;14.10;90.10
20337;DHT22;10326;53.660;10.200;2023-02-22T13:07:38;14.10;90.10
20337;DHT22;10326;53.660;10.200;2023-02-22T13:13:20;14.20;90.10
20337;DHT22;10326;53.660;10.200;2023-02-22T13:15:56;14.20;90.10
20337;DHT22;10326;53.660;10.200;2023-02-22T13:18:32;14.30;90.20
20337;DHT22;10326;53.660;10.200;2023-02-22T13:21:07;14.30;90.20
20337;DHT22;10326;53.660;10.200;2023-02-22T13:23:45;14.40;90.20
20337;DHT22;10326;53.660;10.200;2023-02-22T13:26:22;14.40;90.00
20337;DHT22;10326;53.660;10.200;2023-02-22T13:28:56;14.40;90.00
20337;DHT22;10326;53.660;10.200;2023-02-22T13:31:39;14.50;90.00
20337;DHT22;10326;53.660;10.200;2023-02-22T13:34:39;14.50;89.80
20337;DHT22;10326;53.660;10.200;2023-02-22T13:40:47;14.60;89.40
20337;DHT22;10326;53.660;10.200;2023-02-22T13:53:42;14.60;88.70
20337;DHT22;10326;53.660;10.200;2023-02-22T13:56:17;14.60;89.00
20337;DHT22;10326;53.660;10.200;2023-02-22T13:58:47;14.60;89.10
20337;DHT22;10326;53.660;10.200;2023-02-22T14:01:41;14.60;89.10
20337;DHT22;10326;53.660;10.200;2023-02-22T14:04:35;14.60;88.50
20337;DHT22;10326;53.660;10.200;2023-02-22T14:10:45;14.60;88.50
20337;DHT22;10326;53.660;10.200;2023-02-22T14:13:16;14.60;88.50
20337;DHT22;10326;53.660;10.200;2023-02-22T14:16:15;14.60;88.60
20337;DHT22;10326;53.660;10.200;2023-02-22T14:18:49;14.60;88.40
20337;DHT22;10326;53.660;10.200;2023-02-22T14:21:27;14.60;88.50
20337;DHT22;10326;53.660;10.200;2023-02-22T14:23:55;14.60;88.60
20337;DHT22;10326;53.660;10.200;2023-02-22T14:26:26;14.50;88.50
20337;DHT22;10326;53.660;10.200;2023-02-22T14:28:58;14.50;88.20
20337;DHT22;10326;53.660;10.200;2023-02-22T14:31:28;14.50;88.10
20337;DHT22;10326;53.660;10.200;2023-02-22T14:34:03;14.50;88.30
20337;DHT22;10326;53.660;10.200;2023-02-22T14:36:40;14.50;88.00
20337;DHT22;10326;53.660;10.200;2023-02-22T14:39:15;14.50;88.10
20337;DHT22;10326;53.660;10.200;2023-02-22T14:41:50;14.50;88.10
20337;DHT22;10326;53.660;10.200;2023-02-22T14:44:30;14.50;88.20
20337;DHT22;10326;53.660;10.200;2023-02-22T14:47:04;14.40;87.70
20337;DHT22;10326;53.660;10.200;2023-02-22T14:49:43;14.40;88.00
20337;DHT22;10326;53.660;10.200;2023-02-22T14:52:20;14.40;88.10
20337;DHT22;10326;53.660;10.200;2023-02-22T14:54:54;14.40;88.10
20337;DHT22;10326;53.660;10.200;2023-02-22T14:57:36;14.40;88.20
20337;DHT22;10326;53.660;10.200;2023-02-22T15:00:16;14.30;88.10
20337;DHT22;10326;53.660;10.200;2023-02-22T15:02:56;14.30;88.00
20337;DHT22;10326;53.660;10.200;2023-02-22T15:05:26;14.30;88.20
20337;DHT22;10326;53.660;10.200;2023-02-22T15:07:58;14.30;88.20
20337;DHT22;10326;53.660;10.200;2023-02-22T15:10:28;14.30;88.10
20337;DHT22;10326;53.660;10.200;2023-02-22T15:12:59;14.30;88.20
20337;DHT22;10326;53.660;10.200;2023-02-22T15:15:40;14.30;88.20
20337;DHT22;10326;53.660;10.200;2023-02-22T15:18:18;14.30;88.10
20337;DHT22;10326;53.660;10.200;2023-02-22T15:20:50;14.30;88.00
20337;DHT22;10326;53.660;10.200;2023-02-22T15:23:22;14.20;88.00
20337;DHT22;10326;53.660;10.200;2023-02-22T15:25:51;14.20;88.00
20337;DHT22;10326;53.660;10.200;2023-02-22T15:28:18;14.20;88.10
20337;DHT22;10326;53.660;10.200;2023-02-22T15:30:49;14.20;88.10
20337;DHT22;10326;53.660;10.200;2023-02-22T15:33:17;14.20;88.00
20337;DHT22;10326;53.660;10.200;2023-02-22T15:35:53;14.10;88.00
20337;DHT22;10326;53.660;10.200;2023-02-22T15:38:28;14.10;87.90
20337;DHT22;10326;53.660;10.200;2023-02-22T15:41:00;14.10;87.90
20337;DHT22;10326;53.660;10.200;2023-02-22T15:43:28;14.10;88.00
20337;DHT22;10326;53.660;10.200;2023-02-22T15:45:59;14.10;88.10
20337;DHT22;10326;53.660;10.200;2023-02-22T15:48:27;14.00;88.10
20337;DHT22;10326;53.660;10.200;2023-02-22T15:51:08;14.00;88.10
20337;DHT22;10326;53.660;10.200;2023-02-22T15:53:41;14.00;88.00
20337;DHT22;10326;53.660;10.200;2023-02-22T15:56:13;14.00;88.00
20337;DHT22;10326;53.660;10.200;2023-02-22T15:58:43;13.90;88.10
20337;DHT22;10326;53.660;10.200;2023-02-22T16:01:15;13.90;88.70
20337;DHT22;10326;53.660;10.200;2023-02-22T16:03:45;13.90;88.20
20337;DHT22;10326;53.660;10.200;2023-02-22T16:06:23;13.90;88.20
20337;DHT22;10326;53.660;10.200;2023-02-22T16:08:57;13.90;88.20
20337;DHT22;10326;53.660;10.200;2023-02-22T16:11:28;13.80;88.10